KBFD/BFD METAR and TAF weather

Enter ICAO airport designator
Station Type Date Time Source
KBFD METAR 2020/10/22 02:53 UTC NOAA

KBFD 220253Z AUTO 00000KT 7SM OVC004 15/13 A3026 RMK AO2 SLP239 T01500128 53003


Station Type Date Time Source
KBFD Decoded METAR 2020/10/22 02:53 UTC NOAA

BRADFORD REGIONAL AIRPORT, PA, United States (KBFD) 41-48N 078-38W 647M
Oct 21, 2020 - 10:53 PM EDT / 2020.10.22 0253 UTC
Wind: Calm:0
Visibility: 7 mile(s):0
Sky conditions: overcast
Temperature: 59.0 F (15.0 C)
Dew Point: 55.0 F (12.8 C)
Relative Humidity: 86%
Pressure (altimeter): 30.26 in. Hg (1024 hPa)
Pressure tendency: 0.01 inches (0.3 hPa) higher than three hours ago
ob: KBFD 220253Z AUTO 00000KT 7SM OVC004 15/13 A3026 RMK AO2 SLP239 T01500128 53003
cycle: 3

Station Type Date Time Source
KBFD TAF 2020/10/22 03:18 UTC NOAA

TAF
AMD KBFD 220316Z 2203/2224 00000KT 5SM BR OVC003
FM221100 14003KT 6SM BR OVC003
FM221700 22004KT P6SM OVC015

Example: see airport list